Time;durP1;ratioP1;P1;durP2;ratioP2;P2;SDS_P1;SDS_P2;PMS_P1;PMS_P2;Temp;Humidity;BMP_temperature;BMP_pressure;BME280_temperature;BME280_humidity;BME280_pressure;Samples;Min_cycle;Max_cycle;Signal;HPM_P1;HPM_P2
2021/12/28 00:01:54;;;;;;;33.07;18.53;;;;;;;-0.10;77.67;99953.30;1373540;90;21377;-87
2021/12/28 00:04:20;;;;;;;29.20;17.40;;;;;;;-0.13;77.50;99953.95;1389103;88;21482;-88
2021/12/28 00:06:48;;;;;;;27.90;17.50;;;;;;;-0.19;77.57;99948.64;1388509;89;21698;-88
2021/12/28 00:09:15;;;;;;;31.63;15.83;;;;;;;-0.23;77.94;99951.06;1410518;87;21512;-87
2021/12/28 00:11:44;;;;;;;33.23;16.53;;;;;;;-0.25;77.97;99947.70;1412229;87;21596;-90
2021/12/28 00:14:11;;;;;;;34.10;16.90;;;;;;;-0.24;77.79;99955.87;1411522;87;21784;-87
2021/12/28 00:19:24;;;;;;;31.07;17.07;;;;;;;-0.18;78.05;99955.51;1410328;87;21435;-87
2021/12/28 00:21:51;;;;;;;35.43;18.35;;;;;;;-0.14;78.34;99956.19;1409872;87;21706;-85
2021/12/28 00:24:19;;;;;;;34.70;19.10;;;;;;;-0.10;78.36;99954.59;1405850;87;21292;-87
2021/12/28 00:26:46;;;;;;;39.00;20.53;;;;;;;-0.09;78.71;99960.16;1386355;88;21616;-87
2021/12/28 00:29:13;;;;;;;45.93;26.27;;;;;;;-0.11;78.69;99962.03;1406170;87;22370;-88
2021/12/28 00:31:40;;;;;;;52.80;27.57;;;;;;;-0.12;78.69;99965.55;1406317;87;21648;-88
2021/12/28 00:34:07;;;;;;;46.73;26.70;;;;;;;-0.09;78.53;99962.76;1384878;89;21566;-88
2021/12/28 00:36:34;;;;;;;50.90;26.83;;;;;;;-0.07;78.42;99959.61;1406030;87;21544;-87
2021/12/28 00:39:02;;;;;;;47.90;27.17;;;;;;;-0.03;78.34;99968.06;1400750;89;21550;-87
2021/12/28 00:41:31;;;;;;;49.80;26.10;;;;;;;0.01;78.57;99963.54;1405545;87;21567;-86
2021/12/28 00:43:58;;;;;;;56.63;27.43;;;;;;;0.02;78.50;99959.53;1415687;89;21754;-87
2021/12/28 00:46:25;;;;;;;53.07;28.37;;;;;;;0.02;78.26;99963.90;1419765;86;22556;-86
2021/12/28 00:48:54;;;;;;;50.27;26.60;;;;;;;-0.01;78.47;99963.14;1411429;86;21430;-87
2021/12/28 00:51:21;;;;;;;56.73;28.73;;;;;;;-0.01;78.49;99966.22;1418195;86;22524;-86
2021/12/28 00:53:48;;;;;;;58.83;31.60;;;;;;;0.00;78.46;99971.81;1419238;86;21425;-88
2021/12/28 00:56:19;;;;;;;49.33;28.23;;;;;;;0.04;78.39;99975.06;1404070;87;21520;-87
2021/12/28 00:58:48;;;;;;;54.63;29.40;;;;;;;0.06;78.34;99979.25;1415640;86;21409;-89
2021/12/28 01:01:15;;;;;;;54.33;29.97;;;;;;;0.05;78.40;99979.33;1416805;86;21521;-88
2021/12/28 01:03:42;;;;;;;49.83;27.55;;;;;;;0.09;78.23;99979.53;1415852;87;21414;-88
2021/12/28 01:06:10;;;;;;;52.27;27.83;;;;;;;0.11;78.11;99986.30;1416560;86;21315;-88
2021/12/28 01:08:38;;;;;;;50.60;25.60;;;;;;;0.11;78.07;99987.59;1415810;87;21445;-87
2021/12/28 01:11:06;;;;;;;54.00;28.43;;;;;;;0.12;77.94;99982.78;1416599;86;22691;-89
2021/12/28 01:13:33;;;;;;;48.00;26.07;;;;;;;0.13;77.91;99984.91;1415839;87;21706;-88
2021/12/28 01:16:00;;;;;;;46.73;26.03;;;;;;;0.16;77.84;99986.03;1415962;86;22428;-88
2021/12/28 01:18:27;;;;;;;48.17;25.60;;;;;;;0.17;77.96;99986.39;1415966;86;23085;-89
2021/12/28 01:20:56;;;;;;;49.37;24.47;;;;;;;0.18;77.95;99990.69;1417028;87;22429;-89
2021/12/28 01:23:26;;;;;;;45.50;25.80;;;;;;;0.20;77.91;99985.77;1424818;86;21519;-87
2021/12/28 01:25:53;;;;;;;47.03;26.70;;;;;;;0.24;77.85;99992.91;1424889;86;21504;-87
2021/12/28 01:28:20;;;;;;;46.33;23.50;;;;;;;0.22;77.66;99989.09;1425125;86;21712;-88
2021/12/28 01:30:47;;;;;;;46.17;23.67;;;;;;;0.21;77.54;99988.73;1424479;86;21632;-88
2021/12/28 01:33:15;;;;;;;42.07;24.20;;;;;;;0.22;77.49;99990.86;1424094;86;21629;-88
2021/12/28 01:35:42;;;;;;;39.07;23.03;;;;;;;0.24;77.50;99994.22;1424396;86;21545;-88
2021/12/28 01:38:09;;;;;;;47.50;22.27;;;;;;;0.21;77.55;99991.80;1424923;86;22509;-90
2021/12/28 01:40:41;;;;;;;45.37;25.47;;;;;;;0.21;77.50;99990.03;1425565;86;22547;-89
2021/12/28 01:43:16;;;;;;;43.00;23.73;;;;;;;0.21;77.55;99994.41;1425240;86;22258;-89
2021/12/28 01:45:54;;;;;;;40.77;23.83;;;;;;;0.18;77.44;99990.69;1425016;86;21464;-89
2021/12/28 01:48:30;;;;;;;45.53;24.27;;;;;;;0.17;77.55;99993.76;1421168;86;21690;-90
2021/12/28 01:51:17;;;;;;;39.93;22.30;;;;;;;0.14;77.82;99995.68;1422941;86;21705;-90
2021/12/28 01:53:48;;;;;;;41.63;24.50;;;;;;;0.06;78.01;100001.80;1425141;86;21648;-89
2021/12/28 01:56:23;;;;;;;41.48;23.12;;;;;;;-0.02;78.52;100007.02;1425192;86;22692;-90
2021/12/28 01:58:51;;;;;;;41.50;24.17;;;;;;;-0.08;78.79;99999.57;1424131;86;21351;-90
2021/12/28 02:01:19;;;;;;;46.60;21.97;;;;;;;-0.08;78.90;100007.38;1425222;86;22642;-90
2021/12/28 02:03:46;;;;;;;36.73;21.80;;;;;;;-0.09;78.94;100005.69;1406979;87;22437;-89
2021/12/28 02:06:14;;;;;;;43.10;23.73;;;;;;;-0.11;79.20;100011.46;1425027;86;21361;-87
2021/12/28 02:08:41;;;;;;;41.93;23.27;;;;;;;-0.15;79.42;100010.42;1424612;86;22519;-89
2021/12/28 02:11:11;;;;;;;42.57;22.63;;;;;;;-0.14;79.29;100002.54;1424444;86;22434;-89
2021/12/28 02:13:40;;;;;;;41.33;22.20;;;;;;;-0.09;79.33;100001.78;1424609;86;22539;-88
2021/12/28 02:16:07;;;;;;;38.00;22.17;;;;;;;-0.04;79.22;99999.75;1424885;86;21681;-88
2021/12/28 02:18:36;;;;;;;38.20;20.77;;;;;;;0.00;79.36;99997.83;1424731;86;22631;-88
2021/12/28 02:21:07;;;;;;;39.17;22.20;;;;;;;0.00;79.42;100004.33;1425111;86;22666;-88
2021/12/28 02:23:36;;;;;;;33.88;20.43;;;;;;;0.02;79.37;100000.33;1419748;86;21670;-88
2021/12/28 02:26:04;;;;;;;40.47;22.93;;;;;;;0.02;79.59;100002.92;1415591;86;21522;-87
2021/12/28 02:28:32;;;;;;;36.10;20.60;;;;;;;0.03;79.60;99996.78;1415661;87;21562;-88
2021/12/28 02:31:02;;;;;;;37.07;20.00;;;;;;;0.05;79.54;99992.34;1416194;86;21446;-88
2021/12/28 02:33:29;;;;;;;33.05;18.77;;;;;;;0.02;80.31;99988.61;1415684;86;21547;-88
2021/12/28 02:36:00;;;;;;;38.60;22.07;;;;;;;-0.04;80.06;99990.64;1415895;86;21256;-89
2021/12/28 02:38:29;;;;;;;38.75;21.75;;;;;;;-0.02;79.93;99993.17;1415768;86;21595;-88
2021/12/28 02:40:57;;;;;;;34.77;21.43;;;;;;;-0.03;80.17;99991.04;1415763;86;21285;-88
2021/12/28 02:43:25;;;;;;;40.67;21.73;;;;;;;-0.05;80.32;99993.36;1415986;87;21589;-88
2021/12/28 02:46:02;;;;;;;42.43;22.33;;;;;;;-0.08;80.23;99991.77;1415756;87;21573;-88
2021/12/28 02:48:30;;;;;;;43.53;23.13;;;;;;;-0.14;80.79;99993.44;1415049;86;21422;-87
2021/12/28 02:51:07;;;;;;;44.53;22.73;;;;;;;-0.18;80.68;99989.32;1415699;86;21624;-88
2021/12/28 02:53:35;;;;;;;42.17;23.83;;;;;;;-0.19;81.17;99990.26;1413887;87;21562;-88
2021/12/28 02:56:04;;;;;;;41.23;22.13;;;;;;;-0.17;80.98;99980.61;1415912;87;21540;-89
2021/12/28 02:58:38;;;;;;;35.40;20.57;;;;;;;-0.12;80.72;99983.75;1415967;87;21567;-88
2021/12/28 03:01:25;;;;;;;36.00;20.80;;;;;;;-0.08;80.60;99973.55;1415772;87;21517;-88
2021/12/28 03:03:58;;;;;;;37.57;20.70;;;;;;;-0.07;81.18;99979.13;1415649;86;21574;-88
2021/12/28 03:06:25;;;;;;;42.50;22.57;;;;;;;-0.06;80.99;99974.75;1416455;87;21670;-88
2021/12/28 03:08:56;;;;;;;46.53;23.60;;;;;;;-0.03;81.19;99973.27;1415928;87;21646;-88
2021/12/28 03:11:26;;;;;;;40.25;22.17;;;;;;;-0.03;81.55;99983.23;1416258;86;21726;-88
2021/12/28 03:13:57;;;;;;;40.70;20.27;;;;;;;-0.07;81.44;99977.82;1412950;86;21411;-88
2021/12/28 03:16:27;;;;;;;56.37;24.87;;;;;;;-0.09;81.55;99976.23;1416033;87;21470;-89
2021/12/28 03:18:55;;;;;;;43.50;22.63;;;;;;;-0.07;81.80;99980.42;1415626;87;22291;-88
2021/12/28 03:21:23;;;;;;;45.43;22.83;;;;;;;-0.02;82.12;99974.49;1415958;87;22591;-87
2021/12/28 03:23:52;;;;;;;39.60;21.20;;;;;;;-0.01;82.25;99978.75;1418888;86;22019;-89
2021/12/28 03:26:19;;;;;;;47.13;23.03;;;;;;;-0.10;82.51;99983.67;1417421;86;21336;-88
2021/12/28 03:28:47;;;;;;;52.63;24.60;;;;;;;-0.12;82.47;99981.16;1417869;86;21516;-88
2021/12/28 03:31:18;;;;;;;52.87;25.03;;;;;;;-0.24;83.65;99984.02;1417270;86;21366;-88
2021/12/28 03:33:48;;;;;;;48.58;24.43;;;;;;;-0.30;83.82;99979.17;1417553;86;22614;-88
2021/12/28 03:36:21;;;;;;;55.97;25.27;;;;;;;-0.31;83.52;99979.28;1415962;86;21536;-89
2021/12/28 03:38:49;;;;;;;60.63;22.53;;;;;;;-0.28;83.21;99983.00;1417359;86;21749;-89
2021/12/28 03:41:20;;;;;;;46.15;22.93;;;;;;;-0.22;83.48;99984.41;1417311;86;21637;-87
2021/12/28 03:43:51;;;;;;;54.45;24.72;;;;;;;-0.25;83.54;99979.75;1377560;90;22821;-88
2021/12/28 03:46:19;;;;;;;55.07;24.00;;;;;;;-0.21;83.17;99979.09;1377048;89;21388;-88
2021/12/28 03:48:47;;;;;;;47.00;23.27;;;;;;;-0.19;83.43;99973.35;1392765;88;21563;-89
2021/12/28 03:51:15;;;;;;;57.23;24.00;;;;;;;-0.19;83.52;99956.91;1390936;88;21701;-89
2021/12/28 03:53:43;;;;;;;56.23;23.70;;;;;;;-0.18;83.49;99964.61;1391412;88;21624;-90
2021/12/28 03:56:11;;;;;;;54.80;23.50;;;;;;;-0.18;83.32;99969.81;1391514;88;21467;-90
2021/12/28 03:58:40;;;;;;;59.90;24.83;;;;;;;-0.26;83.98;99965.52;1391979;88;21825;-89
2021/12/28 04:01:10;;;;;;;51.67;23.13;;;;;;;-0.26;83.56;99968.13;1392890;88;22849;-90
2021/12/28 04:03:38;;;;;;;57.83;25.48;;;;;;;-0.30;83.71;99967.94;1393054;88;21622;-90
2021/12/28 04:06:08;;;;;;;62.70;26.97;;;;;;;-0.32;84.04;99972.38;1392816;88;21308;-91
2021/12/28 04:08:36;;;;;;;60.30;26.80;;;;;;;-0.32;83.71;99973.69;1392557;88;22634;-90
2021/12/28 04:11:16;;;;;;;62.10;26.23;;;;;;;-0.28;83.86;99970.00;1392577;88;21645;-91
2021/12/28 04:13:46;;;;;;;54.23;24.60;;;;;;;-0.29;83.77;99967.00;1393948;88;21638;-91
2021/12/28 04:16:14;;;;;;;64.07;27.13;;;;;;;-0.26;83.71;99972.02;1374943;90;21623;-91
2021/12/28 04:18:42;;;;;;;70.97;30.20;;;;;;;-0.25;83.87;99973.72;1393333;88;21346;-91
2021/12/28 04:21:11;;;;;;;64.80;24.57;;;;;;;-0.27;84.02;99974.26;1392651;88;23087;-90
2021/12/28 04:23:38;;;;;;;62.83;26.60;;;;;;;-0.31;83.78;99974.91;1397263;86;21498;-90
2021/12/28 04:26:06;;;;;;;63.50;26.37;;;;;;;-0.31;83.70;99981.88;1409035;87;21591;-90
2021/12/28 04:28:33;;;;;;;67.20;25.03;;;;;;;-0.33;83.91;99979.82;1385470;89;21411;-91
2021/12/28 04:31:00;;;;;;;62.53;26.40;;;;;;;-0.33;83.71;99982.42;1378341;90;21807;-90
2021/12/28 04:33:28;;;;;;;66.15;25.43;;;;;;;-0.34;84.03;99984.19;1385399;89;22395;-89
2021/12/28 04:35:55;;;;;;;59.53;23.70;;;;;;;-0.32;83.82;99989.29;1397102;88;22379;-90
2021/12/28 04:38:22;;;;;;;58.57;24.23;;;;;;;-0.27;83.93;99995.06;1385178;88;21591;-89
2021/12/28 04:40:49;;;;;;;69.57;27.00;;;;;;;-0.29;84.16;99990.41;1396804;88;21509;-90
2021/12/28 04:43:16;;;;;;;64.45;27.20;;;;;;;-0.28;83.90;99990.80;1385728;89;21583;-91
2021/12/28 04:45:43;;;;;;;78.40;29.30;;;;;;;-0.27;84.09;99991.16;1380136;90;21308;-89
2021/12/28 04:48:11;;;;;;;65.30;27.00;;;;;;;-0.27;83.87;99988.09;1429267;86;21688;-90
2021/12/28 04:50:40;;;;;;;68.20;29.30;;;;;;;-0.30;84.10;99997.84;1429009;86;21350;-90
2021/12/28 04:53:11;;;;;;;77.53;29.97;;;;;;;-0.33;83.72;100000.63;1428675;85;22361;-89
2021/12/28 04:55:41;;;;;;;;;;;;;;;-0.33;83.82;99995.42;1430793;85;21982;-88
2021/12/28 04:58:08;;;;;;;76.50;28.40;;;;;;;-0.38;84.51;99997.45;1429020;86;20726;-91
2021/12/28 05:00:37;;;;;;;74.97;29.70;;;;;;;-0.38;84.14;99994.84;1428861;85;23125;-89
2021/12/28 05:03:05;;;;;;;73.05;28.65;;;;;;;-0.36;84.29;99995.61;1428645;85;23024;-89
2021/12/28 05:05:33;;;;;;;78.00;30.23;;;;;;;-0.37;84.24;99996.54;1408903;87;22365;-89
2021/12/28 05:08:06;;;;;;;66.45;30.65;;;;;;;-0.38;84.17;99995.67;1429056;86;22470;-89
2021/12/28 05:10:33;;;;;;;63.97;27.47;;;;;;;-0.38;85.14;99993.08;1429050;86;21329;-89
2021/12/28 05:13:01;;;;;;;63.70;26.10;;;;;;;-0.41;85.66;99995.02;1428990;85;21556;-89
2021/12/28 05:15:28;;;;;;;61.73;27.75;;;;;;;-0.48;85.72;99996.68;1428676;86;21503;-89
2021/12/28 05:17:57;;;;;;;63.20;26.87;;;;;;;-0.56;86.06;99998.88;1429069;85;21532;-91
2021/12/28 05:20:24;;;;;;;71.07;27.47;;;;;;;-0.54;85.43;100003.53;1429863;86;21583;-90
2021/12/28 05:22:51;;;;;;;67.70;27.30;;;;;;;-0.49;85.45;99998.05;1429575;86;21269;-90
2021/12/28 05:25:19;;;;;;;72.40;27.57;;;;;;;-0.48;86.07;99999.75;1421909;84;21690;-90
2021/12/28 05:27:46;;;;;;;68.42;28.00;;;;;;;-0.50;86.09;99999.82;1407345;87;21915;-90
2021/12/28 05:30:14;;;;;;;63.25;27.42;;;;;;;-0.53;86.43;99995.27;1407210;87;22416;-91
2021/12/28 05:32:41;;;;;;;60.03;26.97;;;;;;;-0.59;86.48;99994.33;1407850;87;21300;-90
2021/12/28 05:35:14;;;;;;;69.87;29.12;;;;;;;-0.65;87.03;99995.50;1406915;87;21410;-90
2021/12/28 05:37:41;;;;;;;79.80;30.03;;;;;;;-0.68;86.67;99990.48;1407561;87;22578;-91
2021/12/28 05:40:11;;;;;;;74.17;30.93;;;;;;;-0.68;86.90;99995.68;1400369;88;21539;-90
2021/12/28 05:42:39;;;;;;;69.97;28.12;;;;;;;-0.67;87.09;100005.14;1421365;86;21990;-91
2021/12/28 05:45:07;;;;;;;73.10;27.80;;;;;;;-0.70;87.13;99991.02;1395432;88;21292;-91
2021/12/28 05:47:35;;;;;;;81.83;33.07;;;;;;;-0.70;87.22;99998.35;1389500;88;21698;-91
2021/12/28 05:50:04;;;;;;;168.32;63.45;;;;;;;-0.74;87.22;99998.63;1389951;88;21795;-89
2021/12/28 05:52:32;;;;;;;72.47;29.07;;;;;;;-0.73;86.99;100002.89;1389660;88;21478;-89
2021/12/28 05:54:59;;;;;;;104.60;44.30;;;;;;;-0.76;86.96;100002.59;1390329;88;22962;-90
2021/12/28 05:57:26;;;;;;;71.03;31.60;;;;;;;-0.77;86.79;100012.63;1390108;88;22521;-90
2021/12/28 05:59:53;;;;;;;73.33;30.20;;;;;;;-0.74;86.46;100007.72;1387303;89;22404;-89
2021/12/28 06:02:20;;;;;;;74.00;28.77;;;;;;;-0.76;86.52;100011.70;1389856;88;21421;-90
2021/12/28 06:04:47;;;;;;;77.50;31.42;;;;;;;-0.74;86.33;100007.72;1389827;88;21344;-89
2021/12/28 06:07:15;;;;;;;87.78;33.63;;;;;;;-0.70;86.38;100009.22;1389438;88;21368;-89
2021/12/28 06:09:42;;;;;;;94.20;33.98;;;;;;;-0.77;86.52;100009.20;1390361;88;21293;-90
2021/12/28 06:12:10;;;;;;;80.23;28.93;;;;;;;-0.79;86.46;100019.66;1389484;88;21183;-90
2021/12/28 06:14:37;;;;;;;77.05;29.60;;;;;;;-0.78;86.29;100014.83;1389858;88;21449;-89
2021/12/28 06:17:04;;;;;;;90.63;36.37;;;;;;;-0.76;86.43;100022.55;1389282;88;21338;-89
2021/12/28 06:19:31;;;;;;;88.22;34.65;;;;;;;-0.79;87.13;100034.42;1389288;88;21677;-89
2021/12/28 06:21:58;;;;;;;77.30;34.60;;;;;;;-0.81;86.72;100033.66;1389533;88;22336;-90
2021/12/28 06:24:26;;;;;;;76.90;31.40;;;;;;;-0.82;86.64;100037.19;1389417;88;21477;-89
2021/12/28 06:26:53;;;;;;;85.60;37.60;;;;;;;-0.86;87.55;100035.67;1418716;86;21307;-88
2021/12/28 06:29:20;;;;;;;76.92;34.15;;;;;;;-0.94;87.78;100038.23;1417913;86;21796;-87
2021/12/28 06:31:47;;;;;;;101.00;36.65;;;;;;;-0.93;87.36;100036.01;1418022;86;21522;-88
2021/12/28 06:34:15;;;;;;;81.80;35.67;;;;;;;-0.90;87.43;100035.00;1417605;86;22281;-88
2021/12/28 06:36:43;;;;;;;89.42;35.15;;;;;;;-0.83;87.43;100030.33;1418138;86;22072;-87
2021/12/28 06:39:12;;;;;;;119.10;47.35;;;;;;;-0.78;87.31;100032.19;1398473;87;21322;-86
2021/12/28 06:41:40;;;;;;;138.52;62.13;;;;;;;-0.74;87.44;100036.31;1416017;87;21278;-86
2021/12/28 06:44:09;;;;;;;97.82;41.58;;;;;;;-0.69;87.25;100043.40;1409259;87;21316;-88
2021/12/28 06:46:38;;;;;;;103.50;41.25;;;;;;;-0.71;87.24;100045.23;1409985;87;22253;-87
2021/12/28 06:49:05;;;;;;;113.95;53.00;;;;;;;-0.73;86.97;100041.88;1404604;87;21404;-87
2021/12/28 06:51:33;;;;;;;129.68;54.65;;;;;;;-0.68;87.02;100042.47;1416520;87;21264;-87
2021/12/28 06:54:00;;;;;;;85.12;34.00;;;;;;;-0.67;87.53;100038.09;1384623;89;22086;-87
2021/12/28 06:56:27;;;;;;;177.65;78.47;;;;;;;-0.69;87.64;100046.00;1404769;87;21331;-87
2021/12/28 06:58:54;;;;;;;115.27;46.40;;;;;;;-0.65;87.33;100042.76;1414343;86;21354;-87
2021/12/28 07:01:22;;;;;;;97.07;40.60;;;;;;;-0.64;87.13;100045.25;1405143;87;21984;-86
2021/12/28 07:03:51;;;;;;;91.87;35.53;;;;;;;-0.60;87.12;100049.84;1413035;86;21629;-88
2021/12/28 07:06:19;;;;;;;87.17;34.83;;;;;;;-0.58;87.02;100046.20;1383736;90;21420;-87
2021/12/28 07:08:46;;;;;;;97.20;39.67;;;;;;;-0.58;86.92;100054.00;1409525;87;21270;-88
2021/12/28 07:11:13;;;;;;;135.52;59.10;;;;;;;-0.58;86.99;100048.80;1405890;87;21532;-87
2021/12/28 07:13:40;;;;;;;88.50;38.40;;;;;;;-0.60;87.14;100055.88;1409731;87;21309;-87
2021/12/28 07:16:07;;;;;;;233.60;98.53;;;;;;;-0.61;87.22;100056.78;1366059;91;22483;-87
2021/12/28 07:18:35;;;;;;;148.93;60.53;;;;;;;-0.57;87.19;100067.40;1418749;86;22893;-88
2021/12/28 07:21:03;;;;;;;87.97;34.93;;;;;;;-0.52;87.07;100061.92;1404909;87;22977;-87
2021/12/28 07:23:31;;;;;;;88.97;35.67;;;;;;;-0.47;87.11;100067.24;1411031;87;22334;-87
2021/12/28 07:26:00;;;;;;;72.00;30.37;;;;;;;-0.41;86.88;100071.27;1428428;85;21814;-86
2021/12/28 07:28:27;;;;;;;102.10;43.27;;;;;;;-0.37;86.67;100065.45;1426583;86;22049;-86
2021/12/28 07:30:55;;;;;;;88.17;35.87;;;;;;;-0.37;86.53;100059.78;1427633;85;22799;-88
2021/12/28 07:33:24;;;;;;;85.70;33.90;;;;;;;-0.35;86.52;100055.78;1426797;86;21597;-87
2021/12/28 07:35:58;;;;;;;93.17;40.93;;;;;;;-0.33;86.29;100066.94;1426478;86;22672;-87
2021/12/28 07:38:25;;;;;;;143.20;62.20;;;;;;;-0.32;86.55;100064.70;1426751;86;21540;-87
2021/12/28 07:40:52;;;;;;;100.80;43.50;;;;;;;-0.37;86.45;100062.84;1404481;87;21431;-87
2021/12/28 07:43:19;;;;;;;162.67;70.20;;;;;;;-0.43;86.41;100063.17;1411097;87;21626;-88
2021/12/28 07:45:47;;;;;;;110.60;44.70;;;;;;;-0.43;86.53;100057.53;1414528;86;21821;-87
2021/12/28 07:48:14;;;;;;;102.30;44.27;;;;;;;-0.39;86.75;100066.82;1404980;87;22246;-87
2021/12/28 07:50:41;;;;;;;101.53;42.77;;;;;;;-0.35;86.83;100058.38;1416262;86;21350;-87
2021/12/28 07:53:09;;;;;;;109.67;44.83;;;;;;;-0.30;86.74;100064.16;1385234;89;21392;-87
2021/12/28 07:55:36;;;;;;;107.30;44.40;;;;;;;-0.26;86.77;100070.84;1415009;85;21435;-86
2021/12/28 07:58:03;;;;;;;115.47;52.27;;;;;;;-0.21;86.71;100074.50;1404421;87;21563;-86
2021/12/28 08:00:31;;;;;;;90.77;38.10;;;;;;;-0.15;86.81;100078.88;1416028;87;21329;-86
2021/12/28 08:03:00;;;;;;;97.37;42.03;;;;;;;-0.11;86.60;100075.66;1404168;87;21652;-86
2021/12/28 08:05:29;;;;;;;78.42;33.55;;;;;;;-0.06;86.37;100079.68;1386589;88;21646;-90
2021/12/28 08:07:56;;;;;;;98.23;40.03;;;;;;;0.01;86.36;100077.55;1408478;87;21285;-86
2021/12/28 08:10:24;;;;;;;153.30;69.10;;;;;;;0.04;86.02;100076.54;1426996;86;21446;-87
2021/12/28 08:12:54;;;;;;;99.17;41.70;;;;;;;0.01;85.82;100076.72;1426970;86;21444;-87
2021/12/28 08:15:23;;;;;;;94.40;40.13;;;;;;;0.02;85.77;100073.18;1426791;86;21521;-88
2021/12/28 08:17:51;;;;;;;98.83;41.43;;;;;;;0.03;85.88;100067.03;1426378;86;21672;-87
2021/12/28 08:20:19;;;;;;;93.83;35.40;;;;;;;0.02;85.85;100069.27;1426707;86;21715;-86
2021/12/28 08:22:49;;;;;;;99.07;38.80;;;;;;;0.02;85.78;100067.50;1425859;86;21633;-87
2021/12/28 08:25:19;;;;;;;97.37;40.93;;;;;;;0.04;85.83;100071.33;1425977;86;21575;-85
2021/12/28 08:27:47;;;;;;;100.67;40.17;;;;;;;0.02;85.90;100065.38;1426338;86;21627;-87
2021/12/28 08:30:15;;;;;;;82.23;35.07;;;;;;;0.03;86.00;100069.64;1426041;86;21453;-87
2021/12/28 08:32:43;;;;;;;100.97;39.70;;;;;;;0.02;85.99;100070.58;1424415;86;21429;-87
2021/12/28 08:35:12;;;;;;;99.67;41.47;;;;;;;0.10;86.09;100073.58;1426520;86;21562;-86
2021/12/28 08:37:40;;;;;;;103.23;39.97;;;;;;;0.18;86.29;100072.67;1426467;86;21422;-86
2021/12/28 08:40:16;;;;;;;88.40;36.80;;;;;;;0.21;86.23;100073.31;1426760;86;21539;-86
2021/12/28 08:42:43;;;;;;;89.30;38.37;;;;;;;0.29;86.08;100072.88;1405423;87;22333;-87
2021/12/28 08:45:10;;;;;;;99.00;40.83;;;;;;;0.30;85.68;100082.34;1426705;86;21542;-85
2021/12/28 08:47:40;;;;;;;97.67;41.60;;;;;;;0.34;85.70;100083.83;1426252;86;21416;-86
2021/12/28 08:50:10;;;;;;;110.33;46.80;;;;;;;0.42;85.68;100080.31;1426705;86;21677;-86
2021/12/28 08:52:38;;;;;;;99.63;44.03;;;;;;;0.43;85.24;100088.52;1426171;86;21475;-87
2021/12/28 08:55:07;;;;;;;109.83;49.50;;;;;;;0.43;85.21;100076.80;1426588;85;21452;-87
2021/12/28 08:57:37;;;;;;;99.93;42.33;;;;;;;0.51;85.49;100078.09;1426547;86;21710;-86
2021/12/28 09:00:13;;;;;;;102.07;40.27;;;;;;;0.55;85.29;100080.90;1426352;86;21439;-87
2021/12/28 09:02:40;;;;;;;115.63;44.33;;;;;;;0.56;84.88;100077.36;1426769;86;22421;-87
2021/12/28 09:05:13;;;;;;;103.67;42.27;;;;;;;0.58;84.84;100079.41;1427010;86;23018;-87
2021/12/28 09:07:41;;;;;;;109.70;44.10;;;;;;;0.64;84.90;100078.56;1426538;86;21525;-87
2021/12/28 09:10:14;;;;;;;105.67;42.67;;;;;;;0.63;84.42;100077.34;1426801;86;21571;-87
2021/12/28 09:12:41;;;;;;;105.30;45.07;;;;;;;0.67;84.67;100077.55;1427619;86;21653;-88
2021/12/28 09:15:10;;;;;;;129.37;56.20;;;;;;;0.71;84.60;100083.40;1426613;85;21548;-86
2021/12/28 09:17:39;;;;;;;116.90;47.50;;;;;;;0.73;84.43;100076.34;1426612;86;23104;-87
2021/12/28 09:20:12;;;;;;;109.90;42.93;;;;;;;0.77;84.54;100079.95;1426433;87;21429;-87
2021/12/28 09:22:44;;;;;;;105.00;40.63;;;;;;;0.79;84.48;100079.87;1426698;86;21518;-87
2021/12/28 09:25:14;;;;;;;107.77;42.67;;;;;;;0.81;84.49;100081.45;1426404;86;21617;-87
2021/12/28 09:27:43;;;;;;;109.20;46.73;;;;;;;0.74;84.20;100082.74;1430892;86;21677;-87
2021/12/28 09:30:13;;;;;;;112.00;46.58;;;;;;;0.73;83.98;100077.17;1424458;85;21676;-88
2021/12/28 09:32:40;;;;;;;123.47;50.83;;;;;;;0.70;84.01;100076.53;1405534;87;21278;-87
2021/12/28 09:35:10;;;;;;;114.73;44.60;;;;;;;0.70;84.26;100080.44;1426741;86;22524;-87
2021/12/28 09:37:38;;;;;;;130.83;52.73;;;;;;;0.77;84.67;100088.23;1426367;86;22399;-86
2021/12/28 09:40:10;;;;;;;125.07;49.13;;;;;;;0.87;84.71;100088.06;1427007;85;21483;-87
2021/12/28 09:42:38;;;;;;;116.53;48.03;;;;;;;0.92;84.46;100091.66;1426703;86;21395;-87
2021/12/28 09:45:11;;;;;;;120.23;52.77;;;;;;;0.97;84.16;100094.83;1422458;85;21548;-87
2021/12/28 09:47:41;;;;;;;124.20;49.63;;;;;;;0.98;83.89;100092.59;1426551;85;21660;-87
2021/12/28 09:50:16;;;;;;;118.57;47.63;;;;;;;0.95;83.47;100088.43;1426358;86;22789;-88
2021/12/28 09:52:48;;;;;;;109.50;40.53;;;;;;;0.96;83.62;100085.35;1422411;85;21706;-87
2021/12/28 09:55:19;;;;;;;116.17;47.73;;;;;;;0.68;83.69;100080.05;1422447;85;21424;-87
2021/12/28 09:57:51;;;;;;;115.15;43.60;;;;;;;0.64;83.82;100076.44;1427356;86;21542;-87
2021/12/28 10:00:21;;;;;;;130.70;49.77;;;;;;;0.63;83.95;100071.70;1427423;85;21307;-87
2021/12/28 10:02:49;;;;;;;120.53;50.17;;;;;;;0.68;84.47;100071.40;1427065;86;21485;-88
2021/12/28 10:05:25;;;;;;;113.63;46.43;;;;;;;0.77;84.92;100074.73;1426430;86;21388;-86
2021/12/28 10:08:03;;;;;;;120.40;48.37;;;;;;;0.83;84.82;100070.92;1427144;85;21524;-87
2021/12/28 10:10:35;;;;;;;131.20;53.37;;;;;;;0.84;84.89;100066.94;1426651;86;22398;-87
2021/12/28 10:13:07;;;;;;;116.90;43.33;;;;;;;0.92;84.82;100065.14;1426879;86;21621;-86
2021/12/28 10:15:39;;;;;;;110.53;46.93;;;;;;;0.97;84.72;100063.09;1426082;86;21369;-89
2021/12/28 10:18:16;;;;;;;116.47;44.33;;;;;;;0.98;84.33;100053.50;1420730;87;21714;-86
2021/12/28 10:20:53;;;;;;;127.00;58.57;;;;;;;1.02;84.37;100062.81;1413060;87;21409;-85
2021/12/28 10:23:28;;;;;;;134.30;64.87;;;;;;;1.05;84.18;100058.72;1402661;87;21513;-84
2021/12/28 10:25:59;;;;;;;109.13;48.30;;;;;;;0.97;83.79;100060.48;1414445;86;21690;-85
2021/12/28 10:28:35;;;;;;;149.90;62.30;;;;;;;0.97;83.84;100055.74;1408356;85;21654;-85
2021/12/28 10:31:10;;;;;;;130.03;52.97;;;;;;;1.00;83.98;100054.25;1397152;89;22295;-84
2021/12/28 10:33:41;;;;;;;121.97;49.30;;;;;;;1.08;84.22;100050.70;1416062;86;21528;-88
2021/12/28 10:36:13;;;;;;;105.55;43.28;;;;;;;1.15;84.28;100050.67;1416443;86;22377;-86
2021/12/28 10:38:51;;;;;;;117.87;47.93;;;;;;;1.25;84.28;100050.47;1409238;86;21445;-86
2021/12/28 10:41:21;;;;;;;111.33;43.67;;;;;;;1.32;83.99;100056.12;1409382;87;21589;-84
2021/12/28 10:43:55;;;;;;;119.33;47.62;;;;;;;1.34;83.43;100056.41;1408435;87;22564;-84
2021/12/28 10:46:27;;;;;;;117.87;51.23;;;;;;;1.39;83.39;100059.20;1409045;87;22541;-84
2021/12/28 10:49:00;;;;;;;139.15;58.28;;;;;;;1.37;82.77;100059.75;1389712;88;21566;-85
2021/12/28 10:51:41;;;;;;;113.90;48.40;;;;;;;1.38;82.93;100045.77;1379646;89;21493;-89
2021/12/28 10:54:13;;;;;;;104.90;44.70;;;;;;;1.39;83.00;100037.86;1407452;87;21822;-85
2021/12/28 10:57:01;;;;;;;144.83;61.03;;;;;;;1.42;83.05;100045.96;1393084;88;21756;-85
2021/12/28 10:59:31;;;;;;;165.40;55.50;;;;;;;1.48;83.03;100049.47;1408396;87;21579;-85
2021/12/28 11:01:59;;;;;;;163.43;52.83;;;;;;;1.51;83.14;100041.45;1408308;87;23236;-86
2021/12/28 11:04:37;;;;;;;123.80;49.77;;;;;;;1.55;82.97;100041.61;1416700;86;22593;-87
2021/12/28 11:07:08;;;;;;;93.33;42.17;;;;;;;1.60;82.89;100043.45;1408443;87;21463;-87
2021/12/28 11:09:39;;;;;;;;;;;;;;;1.63;82.70;100045.03;1412241;87;21697;-86
2021/12/28 11:12:12;;;;;;;122.80;51.98;;;;;;;1.61;82.16;100038.59;1395517;88;20260;-86
2021/12/28 11:14:41;;;;;;;118.77;49.67;;;;;;;1.56;82.24;100035.00;1389292;88;21315;-87
2021/12/28 11:17:10;;;;;;;118.20;50.73;;;;;;;1.53;82.39;100032.59;1409543;88;21390;-86
2021/12/28 11:19:38;;;;;;;113.63;49.23;;;;;;;1.54;82.68;100035.56;1428455;86;21522;-87
2021/12/28 11:22:11;;;;;;;100.90;44.23;;;;;;;1.48;82.48;100036.44;1430129;86;21664;-85
2021/12/28 11:24:43;;;;;;;96.60;45.67;;;;;;;1.43;82.62;100031.98;1408438;87;21574;-84
2021/12/28 11:27:21;;;;;;;102.40;47.47;;;;;;;1.42;82.70;100035.53;1409171;87;21658;-85